Time;durP1;ratioP1;P1;durP2;ratioP2;P2;SDS_P1;SDS_P2;PMS_P1;PMS_P2;Temp;Humidity;BMP_temperature;BMP_pressure;BME280_temperature;BME280_humidity;BME280_pressure;Samples;Min_cycle;Max_cycle;Signal;HPM_P1;HPM_P2
2022/05/10 00:02:10;;;;;;;4.37;3.20;;;;;;;16.91;63.83;100475.16;4288501;33;35070;-70
2022/05/10 00:04:39;;;;;;;4.12;3.00;;;;;;;16.89;63.94;100485.59;4284737;33;33961;-69
2022/05/10 00:07:07;;;;;;;3.92;2.80;;;;;;;17.28;62.74;100480.41;4287908;33;34382;-70
2022/05/10 00:09:34;;;;;;;4.47;3.05;;;;;;;16.49;65.82;100474.25;4289152;33;33590;-70
2022/05/10 00:12:02;;;;;;;4.75;3.17;;;;;;;16.98;63.94;100487.53;4289404;33;35765;-70
2022/05/10 00:14:30;;;;;;;4.55;3.17;;;;;;;16.84;63.76;100480.94;4289326;33;34810;-70
2022/05/10 00:16:57;;;;;;;6.07;3.30;;;;;;;16.98;63.62;100473.81;4289414;33;34380;-70
2022/05/10 00:19:27;;;;;;;4.78;3.40;;;;;;;16.83;63.44;100473.81;4289063;33;34136;-70
2022/05/10 00:21:55;;;;;;;6.40;2.95;;;;;;;16.85;63.74;100477.09;4286149;33;35046;-70
2022/05/10 00:24:23;;;;;;;4.22;2.87;;;;;;;17.07;63.12;100479.56;4289221;33;34348;-69
2022/05/10 00:26:52;;;;;;;4.47;3.10;;;;;;;16.85;63.86;100473.56;4289199;33;34275;-69
2022/05/10 00:29:22;;;;;;;4.32;2.95;;;;;;;16.82;63.79;100477.63;4289614;33;33998;-70
2022/05/10 00:31:50;;;;;;;3.28;2.87;;;;;;;17.14;62.82;100469.16;4289265;33;34288;-70
2022/05/10 00:34:18;;;;;;;3.90;2.90;;;;;;;17.18;62.79;100472.19;4289279;33;34120;-71
2022/05/10 00:36:45;;;;;;;4.25;3.15;;;;;;;17.20;62.42;100465.31;4289441;33;33983;-70
2022/05/10 00:39:13;;;;;;;4.37;3.00;;;;;;;17.11;62.66;100463.41;4287765;33;33869;-70
2022/05/10 00:42:03;;;;;;;3.78;2.75;;;;;;;17.14;62.63;100457.37;4284120;33;35024;-69
2022/05/10 00:44:38;;;;;;;3.50;2.58;;;;;;;17.55;61.69;100455.38;4289518;33;34077;-70
2022/05/10 00:47:19;;;;;;;4.55;3.28;;;;;;;17.37;62.17;100451.31;4287192;33;33595;-69
2022/05/10 00:50:11;;;;;;;4.00;2.80;;;;;;;17.10;63.28;100450.78;4289109;33;33529;-71
2022/05/10 00:52:44;;;;;;;3.90;3.08;;;;;;;17.40;62.20;100455.41;4284524;33;33659;-70
2022/05/10 00:55:38;;;;;;;5.05;3.37;;;;;;;17.00;63.17;100446.97;4288040;33;34053;-69
2022/05/10 00:58:16;;;;;;;5.07;2.90;;;;;;;17.07;63.09;100448.59;4288838;33;34039;-69
2022/05/10 01:00:45;;;;;;;4.80;3.20;;;;;;;17.48;60.86;100446.63;4279779;33;34787;-70
2022/05/10 01:03:22;;;;;;;3.72;3.03;;;;;;;17.30;61.18;100441.72;4280686;33;34300;-69
2022/05/10 01:06:04;;;;;;;5.07;2.92;;;;;;;17.14;61.73;100439.00;4278414;33;34055;-69
2022/05/10 01:08:37;;;;;;;3.37;2.50;;;;;;;17.02;61.93;100439.28;4280625;33;33839;-69
2022/05/10 01:11:23;;;;;;;5.15;3.17;;;;;;;17.24;60.80;100432.69;4280134;33;34148;-69
2022/05/10 01:14:15;;;;;;;3.75;2.60;;;;;;;17.34;60.46;100431.81;4279888;33;34112;-70
2022/05/10 01:16:43;;;;;;;4.55;2.95;;;;;;;16.75;62.18;100427.72;4281551;33;33631;-69
2022/05/10 01:19:12;;;;;;;4.35;3.00;;;;;;;16.96;61.51;100429.41;4282643;33;34024;-69
2022/05/10 01:21:52;;;;;;;4.70;3.08;;;;;;;17.01;61.48;100428.59;4281774;33;33646;-69
2022/05/10 01:24:32;;;;;;;4.62;3.05;;;;;;;16.97;61.54;100425.56;4281188;33;34938;-71
2022/05/10 01:27:37;;;;;;;3.90;2.90;;;;;;;16.62;62.85;100429.91;4281249;33;34089;-69
2022/05/10 01:30:11;;;;;;;3.90;2.85;;;;;;;16.95;61.51;100425.03;4283146;33;34493;-69
2022/05/10 01:35:38;;;;;;;4.30;3.10;;;;;;;16.98;61.15;100429.16;4287955;33;34238;-69
2022/05/10 01:38:22;;;;;;;4.40;2.72;;;;;;;16.96;60.67;100414.88;4287218;33;33774;-70
2022/05/10 01:40:54;;;;;;;4.05;2.83;;;;;;;16.41;62.41;100417.28;4284940;33;33593;-70
2022/05/10 01:43:38;;;;;;;3.62;2.80;;;;;;;16.52;62.30;100418.97;4287756;33;34717;-70
2022/05/10 01:46:27;;;;;;;5.62;2.97;;;;;;;16.74;61.95;100415.97;4287948;33;34062;-70
2022/05/10 01:49:03;;;;;;;4.07;3.00;;;;;;;16.89;61.06;100414.31;4285155;33;34834;-70
2022/05/10 01:51:34;;;;;;;3.85;2.90;;;;;;;16.73;61.64;100408.81;4282874;33;33291;-69
2022/05/10 01:54:02;;;;;;;4.28;2.90;;;;;;;16.85;60.76;100410.50;4287603;33;34276;-70
2022/05/10 01:56:30;;;;;;;3.87;2.45;;;;;;;16.69;61.55;100406.91;4283196;33;34155;-71
2022/05/10 01:58:57;;;;;;;4.10;2.65;;;;;;;16.76;61.48;100407.44;4288850;33;33959;-70
2022/05/10 02:01:32;;;;;;;3.78;2.72;;;;;;;16.68;61.41;100406.09;4288338;33;34141;-69
2022/05/10 02:04:03;;;;;;;5.47;3.08;;;;;;;16.87;61.22;100403.66;4261639;33;33932;-70
2022/05/10 02:06:47;;;;;;;3.90;2.67;;;;;;;16.67;62.03;100414.56;4274303;33;34285;-70
2022/05/10 02:09:42;;;;;;;4.18;2.78;;;;;;;16.92;61.03;100405.56;4273242;33;34035;-69
2022/05/10 02:12:14;;;;;;;3.90;2.85;;;;;;;16.68;61.58;100403.34;4277843;33;33632;-71
2022/05/10 02:14:47;;;;;;;4.12;2.72;;;;;;;16.62;61.93;100397.03;4284194;33;33749;-69
2022/05/10 02:17:19;;;;;;;3.72;2.75;;;;;;;16.95;60.17;100399.53;4288835;33;34323;-70
2022/05/10 02:19:52;;;;;;;4.00;2.97;;;;;;;16.15;62.82;100408.19;4288511;33;34946;-71
2022/05/10 02:22:40;;;;;;;3.08;2.47;;;;;;;16.46;62.01;100408.25;4281986;33;33474;-68
2022/05/10 02:25:18;;;;;;;4.30;2.75;;;;;;;16.59;61.44;100405.81;4287031;33;33898;-83
2022/05/10 02:27:48;;;;;;;5.00;2.60;;;;;;;16.58;60.90;100398.66;4284582;33;33926;-72
2022/05/10 02:30:19;;;;;;;4.12;2.42;;;;;;;16.78;60.29;100397.03;4287338;33;34065;-70
2022/05/10 02:33:08;;;;;;;3.95;2.95;;;;;;;16.43;61.26;100398.66;4275061;33;33277;-70
2022/05/10 02:35:48;;;;;;;3.60;2.80;;;;;;;16.84;60.25;100397.91;4283804;33;33869;-72
2022/05/10 02:38:40;;;;;;;3.67;2.70;;;;;;;16.43;61.00;100389.63;4274397;33;34819;-72
2022/05/10 02:41:25;;;;;;;4.70;2.70;;;;;;;16.27;61.74;100386.88;4265368;33;33877;-71
2022/05/10 02:43:56;;;;;;;3.80;2.80;;;;;;;16.43;61.33;100392.38;4274198;33;33795;-70
2022/05/10 02:46:25;;;;;;;3.20;2.50;;;;;;;16.15;62.05;100391.75;4274944;33;34032;-72
2022/05/10 02:48:53;;;;;;;3.75;2.75;;;;;;;16.16;61.56;100391.50;4287226;33;35060;-71
2022/05/10 02:51:21;;;;;;;3.12;2.42;;;;;;;16.02;61.65;100393.09;4288067;33;33693;-70
2022/05/10 02:53:48;;;;;;;2.97;2.37;;;;;;;16.19;61.00;100387.38;4288619;33;33508;-71
2022/05/10 02:56:20;;;;;;;3.58;2.80;;;;;;;15.96;61.57;100392.28;4275484;33;34555;-71
2022/05/10 02:59:00;;;;;;;3.62;2.58;;;;;;;16.11;61.33;100390.66;4286595;33;34049;-74
2022/05/10 03:01:27;;;;;;;3.90;2.55;;;;;;;15.82;61.97;100395.78;4288006;33;34013;-71
2022/05/10 03:03:55;;;;;;;3.53;2.90;;;;;;;16.10;60.95;100397.22;4288244;33;33480;-71
2022/05/10 03:06:25;;;;;;;3.40;2.70;;;;;;;16.30;60.22;100401.94;4281892;33;33916;-70
2022/05/10 03:08:57;;;;;;;3.62;2.53;;;;;;;16.19;60.53;100399.16;4288124;33;34159;-70
2022/05/10 03:11:25;;;;;;;3.60;2.75;;;;;;;15.90;61.32;100389.78;4287555;33;34695;-75
2022/05/10 03:13:53;;;;;;;4.03;2.62;;;;;;;15.47;62.85;100391.75;4287933;33;32393;-69
2022/05/10 03:16:24;;;;;;;3.75;2.83;;;;;;;15.88;61.37;100397.44;4288072;33;34139;-70
2022/05/10 03:18:53;;;;;;;3.78;2.87;;;;;;;15.90;61.18;100393.34;4287818;33;34204;-70
2022/05/10 03:21:22;;;;;;;3.85;2.83;;;;;;;15.62;62.24;100397.31;4287121;33;34023;-77
2022/05/10 03:23:50;;;;;;;3.35;2.55;;;;;;;15.47;62.60;100397.22;4283710;33;33591;-80
2022/05/10 03:26:23;;;;;;;5.20;3.00;;;;;;;14.76;65.05;100399.19;4287747;33;35122;-70
2022/05/10 03:28:52;;;;;;;3.92;2.90;;;;;;;14.89;64.84;100391.66;4287737;33;33889;-74
2022/05/10 03:31:22;;;;;;;4.12;3.22;;;;;;;15.00;64.75;100395.28;4279816;33;34503;-75
2022/05/10 03:34:53;;;;;;;3.40;2.70;;;;;;;15.19;64.02;100396.50;4286070;33;33049;-75
2022/05/10 03:36:40;;;;;;;3.75;2.78;;;;;;;15.24;63.38;100395.72;4282995;33;34490;-72
2022/05/10 03:39:09;;;;;;;5.22;2.78;;;;;;;15.39;63.24;100393.06;4289490;33;34314;-74
2022/05/10 03:41:37;;;;;;;3.80;2.55;;;;;;;15.18;63.63;100395.69;4289530;33;33888;-72
2022/05/10 03:44:04;;;;;;;5.00;2.85;;;;;;;15.27;63.90;100393.28;4289777;33;33307;-73
2022/05/10 03:46:32;;;;;;;4.10;3.10;;;;;;;15.36;63.43;100391.69;4283655;33;34133;-72
2022/05/10 03:48:59;;;;;;;4.47;2.83;;;;;;;15.03;64.24;100392.87;4288400;33;33702;-73
2022/05/10 03:51:28;;;;;;;3.42;2.65;;;;;;;15.15;64.20;100395.38;4289471;33;33544;-82
2022/05/10 03:53:56;;;;;;;4.30;2.85;;;;;;;15.69;63.27;100392.41;4289348;33;33378;-71
2022/05/10 03:56:23;;;;;;;4.35;2.50;;;;;;;16.35;60.35;100397.28;4289673;33;34104;-71
2022/05/10 03:58:51;;;;;;;4.85;3.20;;;;;;;16.35;61.39;100394.56;4289203;33;34259;-70
2022/05/10 04:01:19;;;;;;;5.87;3.20;;;;;;;16.86;59.23;100391.03;4280968;33;35086;-96
2022/05/10 04:03:48;;;;;;;4.25;3.00;;;;;;;17.39;58.67;100394.25;4274433;33;34648;-71
2022/05/10 04:06:18;;;;;;;3.90;2.62;;;;;;;18.06;55.77;100394.03;4281462;33;33673;-70
2022/05/10 04:08:46;;;;;;;4.10;2.72;;;;;;;17.20;58.74;100396.75;4287093;33;34181;-71
2022/05/10 04:11:14;;;;;;;3.80;2.67;;;;;;;18.52;54.21;100387.41;4288509;33;34658;-72
2022/05/10 04:13:43;;;;;;;3.97;2.58;;;;;;;19.17;52.05;100387.13;4287439;33;33003;-73
2022/05/10 04:16:11;;;;;;;3.40;2.50;;;;;;;19.76;50.62;100387.88;4281924;33;33560;-81
2022/05/10 04:18:39;;;;;;;3.35;2.30;;;;;;;20.22;49.42;100385.34;4289844;33;35037;-86
2022/05/10 04:21:06;;;;;;;3.37;2.22;;;;;;;19.89;51.93;100395.41;4290321;33;33968;-80
2022/05/10 04:23:35;;;;;;;3.55;2.40;;;;;;;20.60;49.14;100401.84;4290186;33;34303;-76
2022/05/10 04:26:14;;;;;;;3.15;2.37;;;;;;;20.92;47.79;100404.94;4288232;33;34254;-74
2022/05/10 04:28:43;;;;;;;2.92;2.40;;;;;;;20.92;47.85;100405.75;4281824;33;34041;-77
2022/05/10 04:31:11;;;;;;;3.97;2.10;;;;;;;21.11;48.13;100411.22;4287635;33;33960;-72
2022/05/10 04:33:39;;;;;;;3.80;2.58;;;;;;;21.28;46.29;100416.19;4283805;33;31858;-76
2022/05/10 04:36:08;;;;;;;3.92;2.72;;;;;;;21.71;44.84;100415.94;4281244;33;34805;-78
2022/05/10 04:38:44;;;;;;;3.33;2.22;;;;;;;21.91;44.16;100409.97;4280495;33;34174;-70
2022/05/10 04:41:26;;;;;;;2.70;2.10;;;;;;;21.76;43.68;100415.00;4288592;33;34662;-71
2022/05/10 04:43:55;;;;;;;2.90;2.30;;;;;;;22.23;44.17;100419.28;4285551;33;33491;-71
2022/05/10 04:46:23;;;;;;;3.05;2.30;;;;;;;22.75;42.43;100418.91;4279064;33;33439;-71
2022/05/10 04:48:53;;;;;;;3.00;2.30;;;;;;;22.42;44.09;100427.41;4281050;33;34177;-71
2022/05/10 04:51:21;;;;;;;3.22;2.12;;;;;;;22.61;42.39;100430.00;4281578;33;33881;-71
2022/05/10 04:53:48;;;;;;;3.45;2.15;;;;;;;22.44;42.67;100427.09;4276907;33;33847;-70
2022/05/10 04:56:16;;;;;;;6.12;2.20;;;;;;;21.91;43.47;100421.03;4288573;33;34165;-70
2022/05/10 04:58:43;;;;;;;4.03;2.15;;;;;;;21.39;44.68;100427.84;4287393;33;35037;-69
2022/05/10 05:01:14;;;;;;;2.87;2.40;;;;;;;21.39;45.94;100419.56;4288380;33;34027;-71
2022/05/10 05:03:45;;;;;;;5.37;2.22;;;;;;;21.55;45.56;100420.09;4288703;33;33297;-70
2022/05/10 05:06:12;;;;;;;3.80;2.53;;;;;;;21.82;46.77;100420.13;4286266;33;34080;-74
2022/05/10 05:08:41;;;;;;;3.08;2.20;;;;;;;22.06;45.45;100424.59;4288704;33;34765;-71
2022/05/10 05:11:09;;;;;;;6.28;2.30;;;;;;;22.64;43.35;100432.16;4288293;33;34030;-69
2022/05/10 05:13:36;;;;;;;3.83;2.40;;;;;;;23.32;40.53;100432.12;4287287;33;33626;-78
2022/05/10 05:16:05;;;;;;;3.87;2.80;;;;;;;23.21;42.31;100436.31;4274358;33;33310;-71
2022/05/10 05:18:33;;;;;;;3.50;2.40;;;;;;;23.23;40.58;100434.03;4283473;33;35078;-70
2022/05/10 05:21:00;;;;;;;3.35;2.28;;;;;;;22.63;41.85;100436.03;4288691;33;34124;-75
2022/05/10 05:23:28;;;;;;;4.30;2.85;;;;;;;22.71;42.69;100440.00;4288762;33;34274;-73
2022/05/10 05:25:56;;;;;;;3.28;2.28;;;;;;;22.22;45.37;100438.88;4288740;33;34614;-70
2022/05/10 05:28:23;;;;;;;2.83;2.22;;;;;;;22.69;41.42;100431.22;4281652;33;34173;-71
2022/05/10 05:30:51;;;;;;;3.70;2.67;;;;;;;21.93;42.52;100442.81;4287804;33;33136;-71
2022/05/10 05:33:19;;;;;;;3.83;2.60;;;;;;;21.13;46.29;100439.34;4280890;33;33653;-72
2022/05/10 05:35:46;;;;;;;5.12;2.97;;;;;;;20.73;46.12;100443.59;4287978;33;34160;-71
2022/05/10 05:38:13;;;;;;;4.30;2.42;;;;;;;21.18;44.85;100443.94;4286428;33;34460;-70
2022/05/10 05:40:41;;;;;;;3.50;2.50;;;;;;;19.85;48.92;100438.44;4266574;33;33454;-70
2022/05/10 05:43:17;;;;;;;3.28;2.40;;;;;;;20.64;47.85;100444.25;4284521;33;33778;-70
2022/05/10 05:45:45;;;;;;;3.72;2.90;;;;;;;19.72;49.06;100442.72;4283874;33;34589;-70
2022/05/10 05:48:13;;;;;;;5.65;2.92;;;;;;;19.99;50.14;100444.06;4287509;33;34016;-70
2022/05/10 05:50:41;;;;;;;4.80;3.08;;;;;;;19.67;50.34;100445.50;4287646;33;34637;-71
2022/05/10 05:53:08;;;;;;;4.50;2.80;;;;;;;19.85;51.68;100439.25;4287179;33;34072;-69
2022/05/10 05:55:36;;;;;;;4.78;3.12;;;;;;;20.27;48.96;100451.38;4288216;33;35129;-69
2022/05/10 05:58:03;;;;;;;3.75;2.60;;;;;;;20.81;46.80;100448.44;4287975;33;35110;-69
2022/05/10 06:00:31;;;;;;;3.97;2.60;;;;;;;20.58;46.34;100448.25;4287081;33;34389;-71
2022/05/10 06:03:00;;;;;;;4.30;2.95;;;;;;;20.80;46.54;100444.00;4277652;33;33628;-70
2022/05/10 06:05:27;;;;;;;3.75;2.60;;;;;;;21.05;46.50;100446.34;4275020;33;33833;-70
2022/05/10 06:07:55;;;;;;;5.03;2.67;;;;;;;21.02;43.94;100451.69;4275205;33;35118;-70
2022/05/10 06:10:23;;;;;;;4.40;2.70;;;;;;;20.84;45.85;100450.56;4274888;33;34016;-70
2022/05/10 06:12:50;;;;;;;4.57;2.53;;;;;;;21.14;44.64;100446.47;4275404;33;33518;-70
2022/05/10 06:15:19;;;;;;;4.12;2.65;;;;;;;21.42;45.06;100450.16;4275073;33;34687;-69
2022/05/10 06:17:48;;;;;;;7.70;2.62;;;;;;;20.62;46.63;100449.25;4275317;33;34248;-71
2022/05/10 06:20:19;;;;;;;4.78;2.83;;;;;;;20.85;48.96;100457.75;4262229;33;34055;-71
2022/05/10 06:22:48;;;;;;;3.90;2.55;;;;;;;22.33;43.91;100456.91;4275218;33;33578;-70
2022/05/10 06:25:18;;;;;;;5.07;2.60;;;;;;;22.56;41.37;100460.53;4274789;33;34715;-70
2022/05/10 06:27:47;;;;;;;7.07;3.20;;;;;;;22.14;40.31;100457.03;4275130;33;34993;-70
2022/05/10 06:30:15;;;;;;;3.95;2.80;;;;;;;22.06;40.56;100463.28;4274099;33;33870;-70
2022/05/10 06:32:43;;;;;;;4.35;2.42;;;;;;;21.48;41.25;100459.16;4275279;33;33795;-70
2022/05/10 06:35:11;;;;;;;5.53;2.85;;;;;;;20.93;43.23;100462.59;4272762;33;33809;-68
2022/05/10 06:40:31;;;;;;;5.18;2.80;;;;;;;22.71;38.46;100462.12;4275125;33;33924;-75
2022/05/10 06:43:01;;;;;;;2.65;2.10;;;;;;;23.35;37.22;100461.97;4275113;33;34251;-77
2022/05/10 06:45:31;;;;;;;3.75;2.50;;;;;;;24.00;36.77;100459.66;4274588;33;33996;-72
2022/05/10 06:47:59;;;;;;;4.03;1.95;;;;;;;24.54;33.70;100452.75;4274784;33;35098;-71
2022/05/10 06:50:27;;;;;;;3.12;1.95;;;;;;;24.25;35.61;100460.84;4275004;33;34648;-72
2022/05/10 06:52:57;;;;;;;3.75;2.33;;;;;;;25.14;32.29;100453.03;4274944;33;33209;-77
2022/05/10 06:55:27;;;;;;;3.67;2.30;;;;;;;26.08;30.40;100455.03;4274580;33;34127;-73
2022/05/10 06:57:54;;;;;;;3.22;2.28;;;;;;;25.90;31.34;100457.91;4264700;33;34085;-73
2022/05/10 07:00:28;;;;;;;2.92;2.20;;;;;;;25.45;31.61;100457.56;4274446;33;34092;-71
2022/05/10 07:02:58;;;;;;;4.20;2.17;;;;;;;23.76;35.48;100449.81;4274833;33;34352;-69
2022/05/10 07:05:25;;;;;;;3.28;2.15;;;;;;;24.12;31.84;100451.53;4275688;33;33781;-72
2022/05/10 07:07:53;;;;;;;4.28;2.00;;;;;;;23.40;35.43;100453.50;4276157;33;35196;-71
2022/05/10 07:10:21;;;;;;;4.60;2.12;;;;;;;23.40;34.75;100450.75;4273524;33;34382;-72
2022/05/10 07:12:48;;;;;;;2.78;1.85;;;;;;;23.43;35.16;100455.62;4273771;33;33253;-70
2022/05/10 07:15:18;;;;;;;2.22;2.03;;;;;;;23.23;35.74;100453.41;4275251;33;34355;-73
2022/05/10 07:17:49;;;;;;;2.75;1.90;;;;;;;22.65;37.64;100457.84;4275603;33;34344;-72
2022/05/10 07:20:20;;;;;;;3.30;2.30;;;;;;;22.98;36.52;100447.37;4275120;33;34308;-72
2022/05/10 07:22:48;;;;;;;2.87;2.30;;;;;;;23.03;35.71;100452.00;4274964;33;33647;-74
2022/05/10 07:25:19;;;;;;;3.12;2.30;;;;;;;23.20;35.83;100454.06;4275315;33;33892;-72
2022/05/10 07:27:49;;;;;;;3.25;2.40;;;;;;;23.94;35.59;100448.72;4275178;33;34326;-74
2022/05/10 07:30:17;;;;;;;3.10;2.47;;;;;;;25.14;33.01;100453.87;4269227;33;34054;-71
2022/05/10 07:32:44;;;;;;;3.90;2.30;;;;;;;24.33;33.55;100451.72;4270837;33;34288;-72
2022/05/10 07:35:12;;;;;;;4.82;2.37;;;;;;;24.66;35.95;100454.06;4275269;33;34036;-73
2022/05/10 07:37:40;;;;;;;2.55;2.10;;;;;;;25.00;34.72;100453.22;4274940;33;34014;-71
2022/05/10 07:40:09;;;;;;;3.60;2.30;;;;;;;24.22;35.76;100455.97;4274950;33;34496;-73
2022/05/10 07:42:38;;;;;;;4.30;2.50;;;;;;;24.19;33.85;100453.81;4275211;33;33222;-73
2022/05/10 07:45:07;;;;;;;3.15;2.12;;;;;;;23.16;38.96;100455.84;4272937;33;33900;-71
2022/05/10 07:47:35;;;;;;;3.53;2.47;;;;;;;24.55;35.14;100456.34;4270034;33;34216;-71
2022/05/10 07:50:03;;;;;;;4.07;2.35;;;;;;;23.25;35.75;100457.50;4275067;33;34565;-71
2022/05/10 07:52:31;;;;;;;4.12;2.28;;;;;;;23.22;36.40;100454.53;4274979;33;33485;-72
2022/05/10 07:55:00;;;;;;;5.07;2.30;;;;;;;22.39;39.41;100455.66;4274940;33;33929;-72
2022/05/10 07:57:28;;;;;;;2.72;2.10;;;;;;;23.13;37.58;100460.87;4282267;33;34265;-72
2022/05/10 07:59:55;;;;;;;5.40;2.40;;;;;;;22.76;38.92;100453.72;4289347;33;34228;-71
2022/05/10 08:02:23;;;;;;;5.55;2.65;;;;;;;22.63;39.21;100460.94;4289058;33;33533;-72
2022/05/10 08:04:50;;;;;;;4.20;2.30;;;;;;;23.21;36.78;100453.72;4288951;33;33807;-72
2022/05/10 08:07:18;;;;;;;5.25;2.67;;;;;;;23.35;39.76;100461.97;4290232;33;34055;-75
2022/05/10 08:09:45;;;;;;;3.00;2.22;;;;;;;23.42;36.44;100458.75;4290308;33;34401;-76
2022/05/10 08:12:13;;;;;;;4.15;2.33;;;;;;;23.56;35.74;100456.69;4290526;33;33661;-74
2022/05/10 08:14:41;;;;;;;3.95;2.30;;;;;;;22.61;39.67;100446.59;4290432;33;34056;-76
2022/05/10 08:17:08;;;;;;;2.72;2.20;;;;;;;22.95;39.64;100442.47;4288474;33;33546;-75
2022/05/10 08:19:36;;;;;;;4.90;2.80;;;;;;;23.55;39.73;100441.22;4273541;33;34094;-74
2022/05/10 08:22:03;;;;;;;6.20;2.80;;;;;;;24.33;34.38;100440.63;4290501;33;33771;-73
2022/05/10 08:24:31;;;;;;;5.00;2.28;;;;;;;24.82;33.04;100446.87;4284864;33;33844;-75
2022/05/10 08:26:59;;;;;;;4.07;2.47;;;;;;;24.86;35.09;100452.56;4290504;33;34112;-74
2022/05/10 08:29:26;;;;;;;3.45;2.72;;;;;;;23.98;35.37;100437.81;4290312;33;34574;-75
2022/05/10 08:31:54;;;;;;;4.55;2.33;;;;;;;22.56;38.31;100438.41;4286849;33;33329;-74
2022/05/10 08:34:39;;;;;;;5.05;2.60;;;;;;;23.90;36.91;100435.81;4290448;33;34942;-75
2022/05/10 08:37:07;;;;;;;4.75;2.70;;;;;;;24.69;36.14;100443.13;4290223;33;34224;-74
2022/05/10 08:39:35;;;;;;;3.33;2.55;;;;;;;24.79;34.00;100444.75;4290349;33;33748;-75
2022/05/10 08:42:24;;;;;;;2.65;2.20;;;;;;;25.14;34.44;100439.12;4290445;33;33343;-75
2022/05/10 08:44:58;;;;;;;5.22;2.67;;;;;;;24.92;35.35;100443.78;4286784;33;33688;-75
2022/05/10 08:47:27;;;;;;;3.90;2.70;;;;;;;25.34;33.03;100435.69;4284113;33;35035;-75
2022/05/10 08:49:58;;;;;;;3.20;2.62;;;;;;;25.32;34.40;100438.00;4289119;33;33810;-75
2022/05/10 08:52:47;;;;;;;3.33;2.37;;;;;;;24.84;34.78;100438.22;4276417;33;33268;-75
2022/05/10 08:55:21;;;;;;;2.87;2.08;;;;;;;25.37;34.51;100437.81;4289158;33;33792;-72
2022/05/10 08:58:26;;;;;;;4.18;2.20;;;;;;;24.40;34.70;100429.06;4286682;33;34296;-74
2022/05/10 09:01:21;;;;;;;4.93;2.30;;;;;;;24.50;33.45;100428.78;4288952;33;35003;-75
2022/05/10 09:04:06;;;;;;;2.45;2.03;;;;;;;25.38;33.94;100433.09;4286382;33;33639;-75
2022/05/10 09:07:03;;;;;;;4.03;2.47;;;;;;;24.62;33.64;100431.72;4288976;33;33793;-74
2022/05/10 09:09:47;;;;;;;4.78;2.40;;;;;;;25.35;34.97;100428.97;4288915;33;34320;-75
2022/05/10 09:12:19;;;;;;;3.10;2.20;;;;;;;25.01;32.81;100424.34;4289101;33;33876;-75
2022/05/10 09:14:55;;;;;;;2.50;1.95;;;;;;;25.35;31.87;100428.19;4289991;33;33643;-74
2022/05/10 09:17:26;;;;;;;3.80;2.53;;;;;;;24.91;32.30;100425.47;4290169;33;34262;-74
2022/05/10 09:19:54;;;;;;;5.57;2.33;;;;;;;24.88;32.38;100416.97;4290195;33;34304;-75
2022/05/10 09:22:41;;;;;;;3.17;2.30;;;;;;;24.88;31.96;100423.37;4290072;33;34870;-77
2022/05/10 09:25:30;;;;;;;4.50;2.60;;;;;;;25.32;34.41;100415.78;4290192;33;33642;-73
2022/05/10 09:27:59;;;;;;;3.80;2.28;;;;;;;25.30;31.44;100411.69;4289928;33;33853;-75
2022/05/10 09:30:32;;;;;;;4.05;2.33;;;;;;;25.48;31.38;100424.38;4283981;33;34268;-73
2022/05/10 09:36:03;;;;;;;3.72;2.58;;;;;;;25.15;32.92;100429.69;4289664;33;33583;-74
2022/05/10 09:38:31;;;;;;;3.60;2.55;;;;;;;25.50;32.54;100416.50;4290131;33;34921;-74
2022/05/10 09:40:58;;;;;;;4.12;2.53;;;;;;;25.67;32.01;100414.81;4285872;33;34279;-71
2022/05/10 09:43:29;;;;;;;3.85;2.87;;;;;;;26.11;32.91;100416.25;4283619;33;34138;-70
2022/05/10 09:46:17;;;;;;;3.92;2.72;;;;;;;25.43;31.34;100421.78;4289885;33;34020;-70
2022/05/10 09:48:47;;;;;;;3.75;2.92;;;;;;;25.41;32.12;100414.94;4289844;33;33714;-71
2022/05/10 09:51:41;;;;;;;6.47;3.15;;;;;;;25.27;33.38;100415.97;4289885;33;34661;-70
2022/05/10 09:54:19;;;;;;;5.93;2.90;;;;;;;25.28;33.77;100416.78;4289829;33;34127;-71
2022/05/10 09:56:50;;;;;;;4.00;2.75;;;;;;;24.50;35.52;100412.94;4289959;33;33525;-71
2022/05/10 09:59:18;;;;;;;4.12;3.17;;;;;;;24.64;36.92;100423.84;4289897;33;33714;-71
2022/05/10 10:01:50;;;;;;;4.95;3.03;;;;;;;24.71;35.82;100413.09;4289616;33;34112;-72
2022/05/10 10:04:24;;;;;;;4.50;3.00;;;;;;;24.35;36.13;100408.66;4289501;33;33913;-70
2022/05/10 10:07:17;;;;;;;6.55;3.17;;;;;;;23.57;40.38;100402.94;4286608;33;34372;-73
2022/05/10 10:09:52;;;;;;;5.40;3.50;;;;;;;23.31;37.60;100395.31;4289579;33;33932;-71
2022/05/10 10:12:41;;;;;;;6.15;3.50;;;;;;;24.08;35.72;100389.53;4285024;33;34317;-72
2022/05/10 10:15:24;;;;;;;4.55;3.28;;;;;;;24.01;37.84;100390.03;4289703;33;33696;-72
2022/05/10 10:17:56;;;;;;;4.35;3.35;;;;;;;24.85;36.76;100384.34;4289777;33;33520;-73
2022/05/10 10:20:33;;;;;;;5.40;3.33;;;;;;;25.18;34.89;100379.84;4289602;33;34170;-73
2022/05/10 10:23:04;;;;;;;5.70;3.58;;;;;;;24.35;35.45;100377.34;4287204;33;34275;-71
2022/05/10 10:25:39;;;;;;;4.62;3.35;;;;;;;24.95;35.21;100381.22;4289530;33;34011;-71
2022/05/10 10:28:15;;;;;;;5.10;2.97;;;;;;;25.63;33.36;100381.31;4287638;33;33306;-73
2022/05/10 10:30:47;;;;;;;5.65;2.90;;;;;;;25.26;35.00;100371.84;4289468;33;35050;-71
2022/05/10 10:33:27;;;;;;;5.05;3.10;;;;;;;25.83;33.38;100381.69;4288351;33;33923;-72
2022/05/10 10:36:04;;;;;;;4.62;2.92;;;;;;;25.96;34.73;100372.31;4289468;33;34046;-72
2022/05/10 10:38:50;;;;;;;3.22;2.40;;;;;;;25.43;36.68;100369.00;4289541;33;33221;-73
2022/05/10 10:41:47;;;;;;;4.32;2.85;;;;;;;26.30;32.03;100371.25;4282456;33;34140;-73
2022/05/10 10:44:24;;;;;;;4.45;3.05;;;;;;;26.32;32.85;100362.56;4277628;33;34361;-71
2022/05/10 10:47:16;;;;;;;3.42;2.30;;;;;;;25.06;33.30;100354.72;4285863;33;34665;-70
2022/05/10 10:50:11;;;;;;;4.50;2.70;;;;;;;25.79;33.28;100349.03;4289045;33;33719;-71
2022/05/10 10:52:39;;;;;;;4.68;3.25;;;;;;;25.95;33.75;100346.47;4289242;33;34956;-70
2022/05/10 10:55:08;;;;;;;5.32;2.90;;;;;;;25.97;33.23;100343.38;4289327;33;35063;-71
2022/05/10 10:57:44;;;;;;;4.28;2.90;;;;;;;26.33;34.64;100337.19;4289377;33;34694;-71
2022/05/10 11:00:15;;;;;;;4.70;2.97;;;;;;;26.78;33.20;100330.91;4289099;33;33298;-71
2022/05/10 11:02:55;;;;;;;4.82;2.75;;;;;;;26.66;31.05;100330.84;4285151;33;34032;-73
2022/05/10 11:05:44;;;;;;;3.90;2.80;;;;;;;26.51;31.41;100334.25;4288782;33;34038;-71
2022/05/10 11:08:17;;;;;;;4.85;3.37;;;;;;;25.92;32.92;100324.94;4289132;33;33985;-72
2022/05/10 11:10:50;;;;;;;5.18;2.80;;;;;;;25.69;34.03;100326.38;4284986;33;33569;-71
2022/05/10 11:13:33;;;;;;;3.72;2.80;;;;;;;26.37;33.97;100323.41;4288012;33;34841;-73
2022/05/10 11:16:23;;;;;;;3.23;2.43;;;;;;;26.53;31.43;100326.38;4288813;33;34195;-71
2022/05/10 11:19:03;;;;;;;5.15;2.60;;;;;;;26.18;31.60;100323.91;4272879;33;34380;-76
2022/05/10 11:21:43;;;;;;;4.20;2.85;;;;;;;26.27;31.85;100324.66;4289029;33;33237;-78
2022/05/10 11:24:55;;;;;;;3.70;2.80;;;;;;;26.38;32.19;100334.19;4287544;33;34027;-75
2022/05/10 11:27:54;;;;;;;2.83;1.95;;;;;;;26.35;32.38;100351.59;4282534;33;34189;-71
2022/05/10 11:30:22;;;;;;;2.42;1.80;;;;;;;25.34;34.39;100332.94;4279605;33;34140;-74
2022/05/10 11:33:17;;;;;;;2.30;1.35;;;;;;;24.06;35.99;100328.06;4269724;33;33246;-71
2022/05/10 11:35:44;;;;;;;1.95;1.40;;;;;;;23.55;34.58;100335.97;4272385;33;33721;-71
2022/05/10 11:38:37;;;;;;;2.50;1.90;;;;;;;22.50;36.73;100335.44;4272826;33;34828;-72
2022/05/10 11:41:28;;;;;;;6.37;1.80;;;;;;;23.14;36.90;100329.63;4272967;33;34953;-72
2022/05/10 11:44:43;;;;;;;5.50;1.83;;;;;;;22.78;37.34;100331.69;4273060;33;33813;-74
2022/05/10 11:47:35;;;;;;;2.05;1.67;;;;;;;21.53;45.09;100334.00;4200543;34;33609;-72
2022/05/10 11:51:38;;;;;;;3.20;1.90;;;;;;;21.86;47.93;100343.78;4200109;34;34010;-71
2022/05/10 11:53:42;;;;;;;3.78;1.90;;;;;;;21.38;49.35;100346.97;4267915;33;34044;-70
2022/05/10 11:56:10;;;;;;;3.92;2.05;;;;;;;20.70;50.42;100329.19;4272969;33;33528;-70
2022/05/10 11:58:37;;;;;;;3.58;2.35;;;;;;;20.43;51.51;100339.00;4269311;33;34955;-72
2022/05/10 12:01:12;;;;;;;5.03;2.47;;;;;;;20.13;54.72;100331.19;4274875;33;34064;-73
2022/05/10 12:03:40;;;;;;;4.15;2.80;;;;;;;20.00;56.55;100333.59;4270349;33;33813;-71